createdAt,value
2023-03-17T00:01:18.306Z,5.03
2023-03-17T00:03:46.698Z,4.99
2023-03-17T00:06:16.198Z,4.96
2023-03-17T00:08:43.852Z,4.93
2023-03-17T00:11:12.599Z,4.91
2023-03-17T00:13:41.146Z,4.88
2023-03-17T00:16:15.750Z,4.87
2023-03-17T00:18:42.620Z,4.86
2023-03-17T00:21:13.107Z,4.85
2023-03-17T00:23:39.862Z,4.84
2023-03-17T00:26:06.624Z,4.83
2023-03-17T00:28:33.415Z,4.82
2023-03-17T00:31:06.487Z,4.81
2023-03-17T00:33:34.112Z,4.80
2023-03-17T00:36:01.360Z,4.79
2023-03-17T00:38:28.090Z,4.77
2023-03-17T00:40:54.753Z,4.75
2023-03-17T00:43:21.351Z,4.73
2023-03-17T00:45:48.006Z,4.72
2023-03-17T00:48:18.666Z,4.72
2023-03-17T00:50:46.684Z,4.71
2023-03-17T00:53:14.913Z,4.72
2023-03-17T00:55:42.988Z,4.71
2023-03-17T00:58:15.557Z,4.71
2023-03-17T01:00:42.287Z,4.70
2023-03-17T01:03:11.946Z,4.71
2023-03-17T01:05:41.173Z,4.71
2023-03-17T01:08:08.088Z,4.71
2023-03-17T01:10:35.185Z,4.70
2023-03-17T01:13:02.131Z,4.70
2023-03-17T01:15:30.494Z,4.70
2023-03-17T01:17:57.509Z,4.70
2023-03-17T01:20:26.371Z,4.69
2023-03-17T01:22:54.685Z,4.69
2023-03-17T01:25:21.425Z,4.69
2023-03-17T01:27:48.323Z,4.68
2023-03-17T01:30:24.574Z,4.67
2023-03-17T01:32:51.414Z,4.67
2023-03-17T01:35:19.134Z,4.66
2023-03-17T01:37:45.888Z,4.65
2023-03-17T01:40:18.782Z,4.66
2023-03-17T01:42:50.946Z,4.65
2023-03-17T01:45:54.922Z,4.65
2023-03-17T01:48:22.407Z,4.65
2023-03-17T01:50:49.719Z,4.63
2023-03-17T01:53:17.850Z,4.63
2023-03-17T01:55:46.340Z,4.64
2023-03-17T01:58:15.461Z,4.63
2023-03-17T02:00:42.091Z,4.63
2023-03-17T02:03:08.785Z,4.62
2023-03-17T02:05:36.516Z,4.61
2023-03-17T02:08:09.769Z,4.61
2023-03-17T02:10:36.417Z,4.59
2023-03-17T02:13:05.530Z,4.60
2023-03-17T02:15:39.856Z,4.60
2023-03-17T02:18:07.201Z,4.60
2023-03-17T02:21:13.429Z,4.60
2023-03-17T02:23:41.445Z,4.60
2023-03-17T02:26:08.634Z,4.60
2023-03-17T02:28:35.362Z,4.60
2023-03-17T02:31:02.787Z,4.60
2023-03-17T02:33:29.402Z,4.60
2023-03-17T02:35:56.075Z,4.60
2023-03-17T02:38:22.783Z,4.60
2023-03-17T02:40:50.966Z,4.60
2023-03-17T02:43:17.646Z,4.60
2023-03-17T02:45:44.354Z,4.60
2023-03-17T02:48:11.357Z,4.59
2023-03-17T02:50:38.116Z,4.58
2023-03-17T02:53:04.755Z,4.57
2023-03-17T02:55:31.386Z,4.60
2023-03-17T02:57:59.398Z,4.60
2023-03-17T03:00:26.484Z,4.59
2023-03-17T03:02:53.184Z,4.59
2023-03-17T03:05:19.857Z,4.60
2023-03-17T03:07:46.731Z,4.60
2023-03-17T03:10:13.500Z,4.60
2023-03-17T03:12:40.098Z,4.59
2023-03-17T03:15:09.185Z,4.59
2023-03-17T03:17:35.805Z,4.60
2023-03-17T03:20:02.512Z,4.60
2023-03-17T03:22:29.188Z,4.61
2023-03-17T03:24:55.778Z,4.59
2023-03-17T03:27:22.511Z,4.61
2023-03-17T03:29:49.157Z,4.61
2023-03-17T03:32:17.238Z,4.60
2023-03-17T03:34:43.874Z,4.60
2023-03-17T03:37:10.823Z,4.59
2023-03-17T03:39:37.471Z,4.59
2023-03-17T03:42:04.160Z,4.59
2023-03-17T03:44:30.735Z,4.57
2023-03-17T03:46:57.387Z,4.57
2023-03-17T03:49:25.455Z,4.57
2023-03-17T03:51:52.089Z,4.56
2023-03-17T03:54:18.730Z,4.55
2023-03-17T03:56:45.404Z,4.55
2023-03-17T03:59:11.999Z,4.54
2023-03-17T04:01:39.054Z,4.53
2023-03-17T04:04:05.719Z,4.52
2023-03-17T04:06:33.729Z,4.52
2023-03-17T04:09:00.311Z,4.52
2023-03-17T04:11:27.020Z,4.51
2023-03-17T04:13:53.608Z,4.51
2023-03-17T04:16:20.295Z,4.50
2023-03-17T04:18:47.011Z,4.50
2023-03-17T04:21:13.730Z,4.48
2023-03-17T04:23:41.975Z,4.48
2023-03-17T04:26:09.314Z,4.48
2023-03-17T04:28:35.912Z,4.46
2023-03-17T04:31:02.472Z,4.45
2023-03-17T04:33:29.276Z,4.45
2023-03-17T04:35:56.182Z,4.43
2023-03-17T04:38:22.899Z,4.42
2023-03-17T04:40:51.160Z,4.42
2023-03-17T04:43:17.922Z,4.41
2023-03-17T04:45:44.681Z,4.41
2023-03-17T04:48:11.362Z,4.42
2023-03-17T04:50:38.034Z,4.42
2023-03-17T04:53:04.800Z,4.42
2023-03-17T04:55:31.359Z,4.43
2023-03-17T04:57:59.482Z,4.41
2023-03-17T05:00:26.239Z,4.42
2023-03-17T05:02:52.899Z,4.42
2023-03-17T05:05:19.528Z,4.42
2023-03-17T05:07:46.182Z,4.43
2023-03-17T05:10:13.035Z,4.42
2023-03-17T05:12:39.687Z,4.42
2023-03-17T05:15:08.412Z,4.43
2023-03-17T05:17:34.990Z,4.44
2023-03-17T05:20:01.732Z,4.45
2023-03-17T05:22:28.370Z,4.45
2023-03-17T05:24:55.103Z,4.44
2023-03-17T05:27:21.697Z,4.45
2023-03-17T05:29:48.542Z,4.45
2023-03-17T05:32:16.735Z,4.46
2023-03-17T05:34:43.410Z,4.44
2023-03-17T05:37:10.371Z,4.45
2023-03-17T05:39:36.980Z,4.47
2023-03-17T05:42:04.035Z,4.47
2023-03-17T05:44:31.051Z,4.49
2023-03-17T05:46:57.733Z,4.51
2023-03-17T05:49:25.929Z,4.52
2023-03-17T05:51:52.800Z,4.54
2023-03-17T05:54:19.469Z,4.54
2023-03-17T05:56:46.198Z,4.56
2023-03-17T05:59:12.884Z,4.55
2023-03-17T06:01:39.539Z,4.59
2023-03-17T06:04:06.807Z,4.59
2023-03-17T06:06:34.880Z,4.59
2023-03-17T06:09:01.593Z,4.62
2023-03-17T06:11:28.325Z,4.63
2023-03-17T06:13:55.002Z,4.64
2023-03-17T06:16:21.682Z,4.66
2023-03-17T06:18:48.346Z,4.69
2023-03-17T06:21:15.150Z,4.70
2023-03-17T06:23:43.270Z,4.72
2023-03-17T06:26:09.935Z,4.75
2023-03-17T06:28:36.566Z,4.76
2023-03-17T06:31:05.338Z,4.79
2023-03-17T06:33:33.781Z,4.81
2023-03-17T06:36:00.559Z,4.85
2023-03-17T06:38:27.376Z,4.89
2023-03-17T06:40:55.370Z,4.94
2023-03-17T06:43:21.968Z,5.01
2023-03-17T06:45:48.602Z,5.07
2023-03-17T06:48:15.214Z,5.12
2023-03-17T06:50:41.959Z,5.16
2023-03-17T06:53:08.666Z,5.22
2023-03-17T06:55:35.466Z,5.27
2023-03-17T06:58:03.494Z,5.32
2023-03-17T07:00:30.173Z,5.37
2023-03-17T07:02:56.934Z,5.43
2023-03-17T07:05:23.638Z,5.48
2023-03-17T07:07:50.428Z,5.54
2023-03-17T07:10:18.336Z,5.62
2023-03-17T07:12:45.192Z,5.71
2023-03-17T07:15:13.375Z,5.80
2023-03-17T07:17:41.022Z,5.93
2023-03-17T07:20:09.273Z,6.08
2023-03-17T07:22:35.903Z,6.21
2023-03-17T07:25:02.565Z,6.30
2023-03-17T07:27:29.200Z,6.39
2023-03-17T07:29:55.896Z,6.46
2023-03-17T07:32:23.857Z,6.53
2023-03-17T07:34:50.476Z,6.60
2023-03-17T07:37:17.222Z,6.64
2023-03-17T07:39:43.914Z,6.73
2023-03-17T07:42:13.837Z,6.81
2023-03-17T07:44:40.397Z,6.88
2023-03-17T07:47:07.275Z,6.91
2023-03-17T07:49:41.554Z,7.01
2023-03-17T07:52:09.808Z,7.14
2023-03-17T07:54:37.075Z,7.28
2023-03-17T07:57:04.524Z,7.42
2023-03-17T07:59:31.298Z,7.51
2023-03-17T08:01:58.489Z,7.61
2023-03-17T08:04:26.068Z,7.67
2023-03-17T08:06:55.123Z,7.74
2023-03-17T08:09:21.960Z,7.82
2023-03-17T08:11:48.889Z,7.92
2023-03-17T08:14:15.621Z,8.04
2023-03-17T08:16:42.753Z,8.11
2023-03-17T08:19:09.436Z,8.19
2023-03-17T08:21:36.139Z,8.31
2023-03-17T08:24:04.503Z,8.39
2023-03-17T08:26:31.162Z,8.46
2023-03-17T08:28:58.018Z,8.52
2023-03-17T08:31:24.702Z,8.56
2023-03-17T08:33:52.907Z,8.59
2023-03-17T08:36:21.198Z,8.63
2023-03-17T08:38:48.414Z,8.69
2023-03-17T08:41:19.902Z,8.76
2023-03-17T08:43:47.655Z,8.82
2023-03-17T08:46:16.886Z,8.85
2023-03-17T08:48:45.844Z,8.91
2023-03-17T08:51:12.892Z,9.01
2023-03-17T08:53:40.074Z,9.09
2023-03-17T08:56:07.839Z,9.17
2023-03-17T08:58:38.468Z,9.26
2023-03-17T09:01:06.746Z,9.32
2023-03-17T09:03:33.946Z,9.42
2023-03-17T09:06:00.842Z,9.54
2023-03-17T09:08:27.855Z,9.64
2023-03-17T09:10:54.640Z,9.73
2023-03-17T09:13:22.176Z,9.86
2023-03-17T09:15:51.846Z,10.00
2023-03-17T09:18:21.930Z,10.14
2023-03-17T09:20:48.978Z,10.22
2023-03-17T09:23:15.592Z,10.29
2023-03-17T09:25:42.236Z,10.34
2023-03-17T09:28:11.362Z,10.43
2023-03-17T09:30:40.436Z,10.57
2023-03-17T09:33:08.610Z,10.69
2023-03-17T09:35:35.304Z,10.80
2023-03-17T09:38:02.134Z,10.88
2023-03-17T09:40:32.229Z,10.98
2023-03-17T09:43:09.099Z,11.13
2023-03-17T09:45:38.545Z,11.30
2023-03-17T09:48:38.752Z,11.52
2023-03-17T09:51:08.990Z,11.73
2023-03-17T09:53:43.426Z,11.84
2023-03-17T09:56:13.952Z,11.97
2023-03-17T09:58:45.752Z,12.09
2023-03-17T10:01:12.478Z,12.23
2023-03-17T10:03:40.749Z,12.36
2023-03-17T10:06:31.608Z,12.53
2023-03-17T10:09:05.779Z,12.66
2023-03-17T10:11:40.400Z,12.79
2023-03-17T10:14:17.341Z,12.89
2023-03-17T10:16:50.871Z,12.94
2023-03-17T10:19:23.904Z,12.98
2023-03-17T10:21:55.442Z,13.05
2023-03-17T10:24:24.443Z,13.15
2023-03-17T10:26:52.584Z,13.23
2023-03-17T10:29:21.529Z,13.29
2023-03-17T10:31:48.887Z,13.39
2023-03-17T10:34:17.400Z,13.45
2023-03-17T10:36:48.903Z,13.44
2023-03-17T10:39:18.836Z,13.45
2023-03-17T10:41:55.381Z,13.46
2023-03-17T10:44:29.026Z,13.55
2023-03-17T10:46:56.319Z,13.67
2023-03-17T10:49:23.167Z,13.81
2023-03-17T10:51:53.102Z,13.94
2023-03-17T10:54:22.161Z,14.03
2023-03-17T10:56:56.909Z,14.14
2023-03-17T10:59:28.615Z,14.19
2023-03-17T11:01:58.763Z,14.24
2023-03-17T11:04:28.718Z,14.33
2023-03-17T11:06:58.058Z,14.44
2023-03-17T11:09:26.609Z,14.55
2023-03-17T11:12:01.449Z,14.66
2023-03-17T11:14:28.058Z,14.79
2023-03-17T11:16:56.826Z,14.90
2023-03-17T11:19:35.924Z,15.05
2023-03-17T11:22:10.127Z,15.16
2023-03-17T11:24:42.800Z,15.23
2023-03-17T11:27:18.064Z,15.31
2023-03-17T11:29:59.455Z,15.45
2023-03-17T11:32:32.261Z,15.55
2023-03-17T11:35:25.280Z,15.61
2023-03-17T11:38:09.216Z,15.67
2023-03-17T11:40:46.904Z,15.73
2023-03-17T11:43:27.948Z,15.71
2023-03-17T11:45:58.547Z,15.71
2023-03-17T11:48:36.846Z,15.74
2023-03-17T11:51:12.759Z,15.74
2023-03-17T11:53:50.641Z,15.74
2023-03-17T11:56:20.393Z,15.73
2023-03-17T11:58:51.774Z,15.70
2023-03-17T12:01:24.732Z,15.67
2023-03-17T12:03:59.013Z,15.70
2023-03-17T12:06:30.007Z,15.69
2023-03-17T12:09:02.810Z,15.70
2023-03-17T12:11:35.694Z,15.75
2023-03-17T12:14:05.311Z,15.80
2023-03-17T12:16:37.507Z,15.83
2023-03-17T12:19:13.739Z,15.89
2023-03-17T12:21:46.411Z,15.91
2023-03-17T12:24:20.081Z,15.91
2023-03-17T12:26:54.934Z,15.88
2023-03-17T12:29:30.233Z,15.87
2023-03-17T12:32:03.342Z,15.86
2023-03-17T12:34:39.338Z,15.81
2023-03-17T12:37:06.813Z,15.74
2023-03-17T12:39:36.967Z,15.73
2023-03-17T12:42:18.418Z,15.74
2023-03-17T12:45:09.335Z,15.74
2023-03-17T12:47:58.965Z,15.75
2023-03-17T12:50:52.921Z,15.70
2023-03-17T12:53:24.102Z,15.67
2023-03-17T12:55:55.415Z,15.69
2023-03-17T12:58:29.338Z,15.68
2023-03-17T13:01:05.546Z,15.67
2023-03-17T13:03:33.373Z,15.70
2023-03-17T13:06:03.024Z,15.72
2023-03-17T13:08:31.488Z,15.77
2023-03-17T13:11:28.100Z,15.83
2023-03-17T13:14:14.391Z,15.91
2023-03-17T13:16:42.055Z,15.97
2023-03-17T13:19:21.174Z,16.06
2023-03-17T13:22:24.925Z,16.13
2023-03-17T13:24:53.086Z,16.17
2023-03-17T13:27:43.142Z,16.15
2023-03-17T13:30:42.268Z,16.16
2023-03-17T13:33:20.174Z,16.18
2023-03-17T13:36:11.814Z,16.18
2023-03-17T13:39:18.745Z,16.15
2023-03-17T13:42:18.753Z,16.10
2023-03-17T13:45:09.813Z,16.13
2023-03-17T13:47:38.850Z,16.21
2023-03-17T13:50:11.851Z,16.21
2023-03-17T13:52:42.522Z,16.19
2023-03-17T13:55:38.742Z,16.19
2023-03-17T13:58:25.606Z,16.22
2023-03-17T14:01:02.117Z,16.26
2023-03-17T14:03:36.206Z,16.28
2023-03-17T14:06:05.398Z,16.26
2023-03-17T14:08:34.865Z,16.28
2023-03-17T14:11:03.675Z,16.29
2023-03-17T14:13:37.454Z,16.29
2023-03-17T14:16:14.267Z,16.30
2023-03-17T14:18:46.278Z,16.25
2023-03-17T14:21:21.729Z,16.21
2023-03-17T14:23:53.436Z,16.15
2023-03-17T14:26:21.858Z,16.08
2023-03-17T14:28:48.522Z,16.05
2023-03-17T14:31:23.061Z,16.00
2023-03-17T14:33:52.137Z,15.97
2023-03-17T14:36:19.869Z,15.94
2023-03-17T14:38:49.407Z,15.90
2023-03-17T14:41:19.360Z,15.86
2023-03-17T14:43:46.936Z,15.83
2023-03-17T14:46:15.756Z,15.79
2023-03-17T14:48:47.154Z,15.75
2023-03-17T14:51:29.578Z,15.68
2023-03-17T14:53:59.755Z,15.65
2023-03-17T14:56:32.417Z,15.61
2023-03-17T14:59:05.743Z,15.56
2023-03-17T15:01:36.762Z,15.51
2023-03-17T15:04:10.904Z,15.48
2023-03-17T15:06:48.026Z,15.44
2023-03-17T15:09:19.940Z,15.42
2023-03-17T15:11:47.670Z,15.37
2023-03-17T15:14:21.119Z,15.33
2023-03-17T15:16:50.227Z,15.29
2023-03-17T15:19:27.606Z,15.26
2023-03-17T15:21:56.086Z,15.22
2023-03-17T15:24:28.320Z,15.16
2023-03-17T15:27:03.449Z,15.12
2023-03-17T15:29:30.593Z,15.07
2023-03-17T15:32:06.735Z,15.02
2023-03-17T15:34:34.714Z,14.98
2023-03-17T15:37:01.306Z,14.93
2023-03-17T15:39:27.959Z,14.88
2023-03-17T15:41:54.641Z,14.81
2023-03-17T15:44:21.286Z,14.77
2023-03-17T15:46:48.098Z,14.73
2023-03-17T15:49:14.766Z,14.68
2023-03-17T15:51:42.794Z,14.63
2023-03-17T15:54:13.793Z,14.57
2023-03-17T15:56:40.412Z,14.53
2023-03-17T15:59:07.008Z,14.47
2023-03-17T16:01:33.643Z,14.41
2023-03-17T16:04:00.248Z,14.36
2023-03-17T16:06:26.949Z,14.32
2023-03-17T16:08:55.022Z,14.29
2023-03-17T16:11:23.170Z,14.25
2023-03-17T16:13:49.948Z,14.20
2023-03-17T16:16:20.344Z,14.15
2023-03-17T16:18:48.940Z,14.10
2023-03-17T16:21:15.970Z,14.04
2023-03-17T16:23:42.854Z,13.99
2023-03-17T16:26:16.203Z,13.93
2023-03-17T16:28:44.821Z,13.88
2023-03-17T16:31:26.198Z,13.82
2023-03-17T16:33:54.503Z,13.77
2023-03-17T16:36:22.781Z,13.71
2023-03-17T16:38:49.703Z,13.65
2023-03-17T16:41:22.645Z,13.62
2023-03-17T16:43:52.341Z,13.56
2023-03-17T16:46:20.488Z,13.50
2023-03-17T16:48:47.336Z,13.45
2023-03-17T16:51:14.169Z,13.39
2023-03-17T16:53:40.876Z,13.32
2023-03-17T16:56:13.090Z,13.27
2023-03-17T16:58:41.705Z,13.21
2023-03-17T17:01:12.760Z,13.14
2023-03-17T17:03:40.550Z,13.09
2023-03-17T17:06:08.306Z,13.03
2023-03-17T17:08:34.971Z,12.97
2023-03-17T17:11:01.646Z,12.92
2023-03-17T17:13:28.439Z,12.87
2023-03-17T17:15:56.550Z,12.83
2023-03-17T17:18:23.474Z,12.76
2023-03-17T17:20:52.015Z,12.69
2023-03-17T17:23:20.363Z,12.63
2023-03-17T17:25:47.653Z,12.57
2023-03-17T17:28:16.343Z,12.51
2023-03-17T17:30:43.520Z,12.47
2023-03-17T17:33:12.673Z,12.42
2023-03-17T17:35:39.469Z,12.39
2023-03-17T17:38:13.407Z,12.33
2023-03-17T17:40:40.356Z,12.27
2023-03-17T17:43:08.860Z,12.22
2023-03-17T17:45:35.649Z,12.19
2023-03-17T17:48:02.325Z,12.17
2023-03-17T17:50:31.277Z,12.12
2023-03-17T17:52:58.038Z,12.08
2023-03-17T17:55:24.656Z,12.05
2023-03-17T17:57:52.502Z,12.02
2023-03-17T18:00:20.123Z,12.01
2023-03-17T18:02:46.785Z,11.98
2023-03-17T18:05:13.545Z,11.96
2023-03-17T18:07:41.663Z,11.93
2023-03-17T18:10:14.689Z,11.90
2023-03-17T18:12:41.500Z,11.88
2023-03-17T18:15:09.323Z,11.87
2023-03-17T18:17:35.959Z,11.85
2023-03-17T18:20:03.193Z,11.83
2023-03-17T18:22:29.893Z,11.79
2023-03-17T18:24:58.195Z,11.77
2023-03-17T18:27:24.859Z,11.75
2023-03-17T18:29:52.062Z,11.72
2023-03-17T18:32:18.720Z,11.69
2023-03-17T18:34:47.021Z,11.66
2023-03-17T18:37:16.665Z,11.62
2023-03-17T18:39:55.516Z,11.58
2023-03-17T18:42:33.903Z,11.55
2023-03-17T18:45:00.705Z,11.53
2023-03-17T18:47:27.433Z,11.50
2023-03-17T18:49:54.094Z,11.46
2023-03-17T18:52:20.846Z,11.44
2023-03-17T18:54:47.625Z,11.42
2023-03-17T18:57:14.373Z,11.41
2023-03-17T18:59:42.790Z,11.39
2023-03-17T19:02:09.346Z,11.38
2023-03-17T19:04:36.093Z,11.37
2023-03-17T19:07:02.784Z,11.35
2023-03-17T19:09:29.351Z,11.33
2023-03-17T19:11:56.052Z,11.31
2023-03-17T19:14:22.722Z,11.29
2023-03-17T19:16:51.625Z,11.27
2023-03-17T19:19:18.296Z,11.26
2023-03-17T19:21:45.052Z,11.23
2023-03-17T19:24:12.339Z,11.20
2023-03-17T19:26:39.051Z,11.18
2023-03-17T19:29:05.759Z,11.15
2023-03-17T19:31:32.883Z,11.12
2023-03-17T19:34:00.985Z,11.10
2023-03-17T19:36:27.582Z,11.07
2023-03-17T19:38:54.142Z,11.05
2023-03-17T19:41:20.745Z,11.03
2023-03-17T19:43:47.346Z,11.01
2023-03-17T19:46:14.266Z,11.00
2023-03-17T19:48:40.926Z,10.98
2023-03-17T19:51:09.265Z,10.96
2023-03-17T19:53:35.905Z,10.95
2023-03-17T19:56:03.124Z,10.93
2023-03-17T19:58:29.673Z,10.89
2023-03-17T20:00:56.273Z,10.88
2023-03-17T20:03:25.658Z,10.85
2023-03-17T20:05:53.003Z,10.83
2023-03-17T20:08:21.156Z,10.81
2023-03-17T20:10:51.702Z,10.78
2023-03-17T20:13:18.462Z,10.74
2023-03-17T20:15:45.109Z,10.74
2023-03-17T20:18:11.712Z,10.70
2023-03-17T20:20:38.354Z,10.68
2023-03-17T20:23:04.954Z,10.65
2023-03-17T20:25:33.083Z,10.63
2023-03-17T20:27:59.713Z,10.60
2023-03-17T20:30:26.291Z,10.55
2023-03-17T20:32:52.969Z,10.51
2023-03-17T20:35:19.720Z,10.47
2023-03-17T20:37:46.343Z,10.45
2023-03-17T20:40:13.406Z,10.43
2023-03-17T20:42:41.597Z,10.41
2023-03-17T20:45:08.529Z,10.38
2023-03-17T20:47:35.324Z,10.36
2023-03-17T20:50:01.936Z,10.33
2023-03-17T20:52:30.198Z,10.30
2023-03-17T20:54:57.012Z,10.26
2023-03-17T20:57:23.675Z,10.23
2023-03-17T20:59:51.640Z,10.21
2023-03-17T21:02:18.637Z,10.17
2023-03-17T21:04:46.903Z,10.14
2023-03-17T21:07:14.611Z,10.12
2023-03-17T21:09:41.685Z,10.08
2023-03-17T21:12:12.974Z,10.03
2023-03-17T21:14:39.679Z,9.99
2023-03-17T21:17:07.684Z,9.97
2023-03-17T21:19:34.795Z,9.95
2023-03-17T21:22:01.463Z,9.92
2023-03-17T21:24:29.957Z,9.88
2023-03-17T21:26:56.861Z,9.85
2023-03-17T21:29:23.462Z,9.81
2023-03-17T21:31:50.123Z,9.77
2023-03-17T21:34:18.173Z,9.78
2023-03-17T21:36:44.885Z,9.75
2023-03-17T21:39:11.512Z,9.74
2023-03-17T21:41:38.487Z,9.72
2023-03-17T21:44:06.514Z,9.72
2023-03-17T21:46:33.171Z,9.70
2023-03-17T21:49:00.051Z,9.66
2023-03-17T21:51:28.319Z,9.62
2023-03-17T21:53:55.695Z,9.59
2023-03-17T21:56:22.346Z,9.56
2023-03-17T21:58:49.124Z,9.53
2023-03-17T22:01:16.184Z,9.50
2023-03-17T22:03:42.927Z,9.48
2023-03-17T22:06:10.060Z,9.46
2023-03-17T22:08:38.176Z,9.43
2023-03-17T22:11:08.572Z,9.43
2023-03-17T22:13:35.490Z,9.40
2023-03-17T22:16:02.542Z,9.38
2023-03-17T22:18:29.222Z,9.36
2023-03-17T22:20:56.210Z,9.34
2023-03-17T22:23:23.255Z,9.31
2023-03-17T22:25:51.329Z,9.28
2023-03-17T22:28:18.436Z,9.24
2023-03-17T22:30:45.418Z,9.22
2023-03-17T22:33:12.471Z,9.21
2023-03-17T22:35:39.455Z,9.19
2023-03-17T22:38:07.289Z,9.18
2023-03-17T22:40:34.281Z,9.17
2023-03-17T22:43:02.630Z,9.15
2023-03-17T22:45:29.523Z,9.14
2023-03-17T22:47:56.368Z,9.14
2023-03-17T22:50:25.203Z,9.14
2023-03-17T22:52:51.846Z,9.14
2023-03-17T22:55:18.614Z,9.14
2023-03-17T22:57:45.277Z,9.13
2023-03-17T23:00:17.941Z,9.13
2023-03-17T23:02:46.992Z,9.12
2023-03-17T23:05:13.952Z,9.12
2023-03-17T23:07:48.016Z,9.09
2023-03-17T23:10:18.757Z,9.09
2023-03-17T23:12:45.310Z,9.09
2023-03-17T23:15:13.441Z,9.08
2023-03-17T23:17:40.182Z,9.07
2023-03-17T23:20:08.298Z,9.07
2023-03-17T23:22:35.622Z,9.08
2023-03-17T23:25:02.392Z,9.08
2023-03-17T23:27:29.367Z,9.08
2023-03-17T23:29:56.313Z,9.10
2023-03-17T23:32:24.423Z,9.11
2023-03-17T23:34:51.004Z,9.12
2023-03-17T23:37:17.569Z,9.12
2023-03-17T23:39:44.222Z,9.12
2023-03-17T23:42:11.129Z,9.13
2023-03-17T23:44:37.826Z,9.13
2023-03-17T23:47:04.664Z,9.14
2023-03-17T23:49:32.633Z,9.16
2023-03-17T23:51:59.266Z,9.17
2023-03-17T23:54:26.237Z,9.17
2023-03-17T23:56:52.937Z,9.18
2023-03-17T23:59:19.890Z,9.18
